createdAt,value
2022-10-24T00:00:23.968Z,99974.88
2022-10-24T00:02:50.449Z,99974.91
2022-10-24T00:05:17.073Z,99972.25
2022-10-24T00:07:43.876Z,99962.56
2022-10-24T00:10:13.829Z,99958.81
2022-10-24T00:12:40.382Z,99958.13
2022-10-24T00:15:08.060Z,99957.28
2022-10-24T00:17:34.512Z,99962.63
2022-10-24T00:20:01.171Z,99958.25
2022-10-24T00:22:28.054Z,99973.94
2022-10-24T00:24:54.712Z,99967.66
2022-10-24T00:27:21.125Z,99966.81
2022-10-24T00:29:47.560Z,99982.63
2022-10-24T00:32:14.511Z,99978.38
2022-10-24T00:34:41.454Z,99978.38
2022-10-24T00:37:08.049Z,99965.19
2022-10-24T00:39:34.565Z,99964.09
2022-10-24T00:42:00.972Z,99966.88
2022-10-24T00:44:29.531Z,99959.19
2022-10-24T00:47:10.279Z,99962.13
2022-10-24T00:50:01.854Z,99960.41
2022-10-24T00:52:32.817Z,99962.19
2022-10-24T00:55:01.055Z,99955.28
2022-10-24T00:57:51.371Z,99960.69
2022-10-24T01:00:22.770Z,99952.66
2022-10-24T01:02:49.574Z,99938.63
2022-10-24T01:05:18.938Z,99940.41
2022-10-24T01:07:54.035Z,99939.47
2022-10-24T01:10:23.971Z,99938.63
2022-10-24T01:13:19.694Z,99936.78
2022-10-24T01:15:55.976Z,99925.38
2022-10-24T01:18:34.535Z,99928.00
2022-10-24T01:21:28.639Z,99935.63
2022-10-24T01:24:06.745Z,99933.84
2022-10-24T01:26:54.750Z,99922.31
2022-10-24T01:29:43.581Z,99927.56
2022-10-24T01:32:14.530Z,99917.53
2022-10-24T01:35:04.937Z,99916.78
2022-10-24T01:37:56.020Z,99920.91
2022-10-24T01:40:36.351Z,99914.44
2022-10-24T01:43:09.477Z,99912.13
2022-10-24T01:45:38.314Z,99903.38
2022-10-24T01:48:10.064Z,99910.38
2022-10-24T01:50:39.106Z,99905.59
2022-10-24T01:53:07.404Z,99899.78
2022-10-24T01:55:34.466Z,99900.78
2022-10-24T01:58:00.897Z,99897.28
2022-10-24T02:00:27.442Z,99892.41
2022-10-24T02:03:29.648Z,99883.06
2022-10-24T02:06:01.428Z,99883.19
2022-10-24T02:08:37.490Z,99879.69
2022-10-24T02:11:07.382Z,99874.50
2022-10-24T02:13:42.227Z,99868.38
2022-10-24T02:16:09.725Z,99877.78
2022-10-24T02:18:36.496Z,99870.09
2022-10-24T02:21:08.398Z,99863.97
2022-10-24T02:24:01.379Z,99863.50
2022-10-24T02:26:46.187Z,99867.94
2022-10-24T02:29:18.652Z,99872.34
2022-10-24T02:31:53.201Z,99864.69
2022-10-24T02:34:22.206Z,99870.66
2022-10-24T02:36:51.040Z,99870.56
2022-10-24T02:39:19.438Z,99866.47
2022-10-24T02:41:47.138Z,99858.78
2022-10-24T02:44:16.539Z,99862.56
2022-10-24T02:46:44.856Z,99859.16
2022-10-24T02:49:11.278Z,99866.84
2022-10-24T02:51:41.151Z,99860.84
2022-10-24T02:54:07.897Z,99859.88
2022-10-24T02:56:37.542Z,99870.25
2022-10-24T02:59:04.028Z,99854.53
2022-10-24T03:01:30.505Z,99857.25
2022-10-24T03:03:56.974Z,99854.44
2022-10-24T03:06:24.146Z,99862.25
2022-10-24T03:08:50.689Z,99854.34
2022-10-24T03:11:17.401Z,99857.16
2022-10-24T03:13:44.122Z,99862.38
2022-10-24T03:16:13.220Z,99864.22
2022-10-24T03:18:40.707Z,99860.97
2022-10-24T03:21:07.174Z,99862.81
2022-10-24T03:23:33.560Z,99861.88
2022-10-24T03:26:00.227Z,99858.97
2022-10-24T03:28:26.847Z,99861.13
2022-10-24T03:30:53.616Z,99864.81
2022-10-24T03:33:20.256Z,99860.56
2022-10-24T03:35:46.660Z,99866.00
2022-10-24T03:38:13.125Z,99857.38
2022-10-24T03:40:39.588Z,99854.91
2022-10-24T03:43:06.035Z,99856.75
2022-10-24T03:45:32.519Z,99855.81
2022-10-24T03:47:58.911Z,99871.63
2022-10-24T03:50:25.312Z,99862.06
2022-10-24T03:52:51.714Z,99859.41
2022-10-24T03:55:18.387Z,99857.59
2022-10-24T03:57:44.924Z,99860.84
2022-10-24T04:00:11.855Z,99854.91
2022-10-24T04:02:40.281Z,99858.66
2022-10-24T04:05:09.824Z,99862.16
2022-10-24T04:07:36.776Z,99863.28
2022-10-24T04:10:03.926Z,99864.16
2022-10-24T04:12:30.342Z,99868.00
2022-10-24T04:15:00.901Z,99870.63
2022-10-24T04:17:30.477Z,99874.97
2022-10-24T04:19:56.875Z,99868.00
2022-10-24T04:22:23.258Z,99874.19
2022-10-24T04:24:49.752Z,99864.63
2022-10-24T04:27:16.160Z,99864.50
2022-10-24T04:29:42.623Z,99866.13
2022-10-24T04:32:09.045Z,99866.13
2022-10-24T04:34:38.933Z,99871.63
2022-10-24T04:37:05.435Z,99875.34
2022-10-24T04:39:32.056Z,99883.16
2022-10-24T04:41:58.779Z,99885.09
2022-10-24T04:44:25.212Z,99886.78
2022-10-24T04:46:51.679Z,99881.69
2022-10-24T04:49:18.427Z,99878.47
2022-10-24T04:51:44.871Z,99877.56
2022-10-24T04:54:11.301Z,99883.66
2022-10-24T04:56:37.806Z,99884.75
2022-10-24T04:59:04.477Z,99894.56
2022-10-24T05:01:30.937Z,99883.25
2022-10-24T05:03:57.447Z,99886.94
2022-10-24T05:06:23.902Z,99889.66
2022-10-24T05:08:50.302Z,99884.47
2022-10-24T05:11:16.683Z,99886.25
2022-10-24T05:13:43.149Z,99889.78
2022-10-24T05:16:09.652Z,99898.63
2022-10-24T05:18:36.062Z,99896.84
2022-10-24T05:21:02.472Z,99889.72
2022-10-24T05:23:28.939Z,99888.94
2022-10-24T05:25:55.343Z,99896.75
2022-10-24T05:28:21.847Z,99904.59
2022-10-24T05:30:48.257Z,99897.47
2022-10-24T05:33:14.747Z,99895.63
2022-10-24T05:35:41.733Z,99886.81
2022-10-24T05:38:08.379Z,99893.00
2022-10-24T05:40:34.849Z,99901.94
2022-10-24T05:43:01.317Z,99903.16
2022-10-24T05:45:27.716Z,99901.38
2022-10-24T05:47:54.201Z,99901.34
2022-10-24T05:50:20.672Z,99904.59
2022-10-24T05:52:47.434Z,99911.63
2022-10-24T05:55:16.938Z,99917.81
2022-10-24T05:57:44.700Z,99927.56
2022-10-24T06:00:14.507Z,99915.28
2022-10-24T06:02:41.929Z,99920.47
2022-10-24T06:05:09.694Z,99921.47
2022-10-24T06:07:37.195Z,99927.66
2022-10-24T06:10:06.559Z,99925.06
2022-10-24T06:12:33.249Z,99946.00
2022-10-24T06:15:00.567Z,99925.03
2022-10-24T06:17:27.036Z,99928.59
2022-10-24T06:19:53.423Z,99934.47
2022-10-24T06:22:20.236Z,99930.91
2022-10-24T06:24:46.690Z,99937.88
2022-10-24T06:27:13.406Z,99933.34
2022-10-24T06:29:39.864Z,99930.78
2022-10-24T06:32:06.267Z,99934.28
2022-10-24T06:34:33.023Z,99934.47
2022-10-24T06:36:59.442Z,99930.28
2022-10-24T06:39:25.894Z,99940.94
2022-10-24T06:41:52.322Z,99949.69
2022-10-24T06:44:18.741Z,99958.44
2022-10-24T06:46:45.531Z,99952.38
2022-10-24T06:49:13.391Z,99961.06
2022-10-24T06:51:40.791Z,99954.53
2022-10-24T06:54:07.589Z,99968.50
2022-10-24T06:56:34.340Z,99958.41
2022-10-24T06:59:00.780Z,99966.94
2022-10-24T07:01:27.781Z,99966.00
2022-10-24T07:03:54.441Z,99960.72
2022-10-24T07:06:26.902Z,99970.06
2022-10-24T07:08:55.906Z,99970.72
2022-10-24T07:11:23.353Z,99970.38
2022-10-24T07:13:50.094Z,99968.59
2022-10-24T07:16:16.727Z,99972.19
2022-10-24T07:18:43.513Z,99978.22
2022-10-24T07:21:15.158Z,99985.97
2022-10-24T07:23:42.015Z,99999.22
2022-10-24T07:26:12.317Z,99995.47
2022-10-24T07:28:39.591Z,100000.41
2022-10-24T07:31:06.544Z,99988.97
2022-10-24T07:33:33.563Z,99998.34
2022-10-24T07:36:00.406Z,99994.59
2022-10-24T07:38:26.972Z,99999.84
2022-10-24T07:40:53.432Z,100003.25
2022-10-24T07:43:19.938Z,100000.56
2022-10-24T07:45:49.158Z,100006.41
2022-10-24T07:48:18.661Z,100016.94
2022-10-24T07:50:46.875Z,100007.31
2022-10-24T07:53:14.046Z,100003.06
2022-10-24T07:55:44.536Z,100022.28
2022-10-24T07:58:11.751Z,99999.19
2022-10-24T08:00:44.020Z,100005.31
2022-10-24T08:03:11.356Z,100008.81
2022-10-24T08:05:40.231Z,100011.78
2022-10-24T08:10:53.592Z,100012.19
2022-10-24T08:13:20.141Z,100015.16
2022-10-24T08:15:46.743Z,100012.88
2022-10-24T08:18:13.194Z,100026.09
2022-10-24T08:20:39.623Z,100019.59
2022-10-24T08:23:06.152Z,100019.53
2022-10-24T08:25:32.684Z,100022.09
2022-10-24T08:27:59.102Z,100016.97
2022-10-24T08:30:25.812Z,100017.91
2022-10-24T08:32:52.339Z,100021.63
2022-10-24T08:35:19.990Z,100022.41
2022-10-24T08:37:46.397Z,100013.72
2022-10-24T08:40:19.236Z,100014.63
2022-10-24T08:42:47.778Z,100018.66
2022-10-24T08:45:27.124Z,100025.41
2022-10-24T08:48:04.093Z,100028.97
2022-10-24T08:50:33.527Z,100030.53
2022-10-24T08:53:21.711Z,100025.72
2022-10-24T08:55:53.407Z,100025.81
2022-10-24T08:58:41.977Z,100032.66
2022-10-24T09:01:16.969Z,100040.63
2022-10-24T09:03:56.867Z,100034.28
2022-10-24T09:06:30.168Z,100031.72
2022-10-24T09:09:00.501Z,100034.03
2022-10-24T09:11:53.281Z,100043.91
2022-10-24T09:14:28.311Z,100043.75
2022-10-24T09:17:10.799Z,100040.13
2022-10-24T09:19:37.769Z,100045.16
2022-10-24T09:22:05.908Z,100039.22
2022-10-24T09:24:51.190Z,100043.78
2022-10-24T09:29:53.438Z,100043.31
2022-10-24T09:32:26.850Z,100047.22
2022-10-24T09:34:54.126Z,100048.13
2022-10-24T09:37:44.201Z,100042.53
2022-10-24T09:40:34.152Z,100052.94
2022-10-24T09:43:17.975Z,100044.31
2022-10-24T09:45:51.596Z,100064.97
2022-10-24T09:48:32.554Z,100061.03
2022-10-24T09:51:00.206Z,100070.81
2022-10-24T09:53:36.846Z,100057.44
2022-10-24T09:56:15.874Z,100075.31
2022-10-24T09:58:43.349Z,100080.13
2022-10-24T10:01:15.811Z,100073.84
2022-10-24T10:03:42.950Z,100082.53
2022-10-24T10:06:28.023Z,100090.22
2022-10-24T10:08:56.356Z,100094.25
2022-10-24T10:11:35.400Z,100090.97
2022-10-24T10:14:16.178Z,100092.38
2022-10-24T10:16:42.732Z,100088.25
2022-10-24T10:19:20.299Z,100101.91
2022-10-24T10:22:02.115Z,100088.63
2022-10-24T10:24:43.289Z,100091.81
2022-10-24T10:27:35.471Z,100092.19
2022-10-24T10:30:15.060Z,100089.88
2022-10-24T10:33:00.804Z,100103.78
2022-10-24T10:35:59.925Z,100100.97
2022-10-24T10:38:51.108Z,100105.41
2022-10-24T10:44:53.079Z,100121.94
2022-10-24T10:47:35.217Z,100126.78
2022-10-24T10:50:11.355Z,100127.25
2022-10-24T10:52:48.403Z,100121.63
2022-10-24T10:55:36.790Z,100125.78
2022-10-24T10:58:18.534Z,100135.81
2022-10-24T11:00:54.030Z,100137.75
2022-10-24T11:03:26.783Z,100128.50
2022-10-24T11:06:18.219Z,100137.41
2022-10-24T11:09:03.578Z,100140.47
2022-10-24T11:11:41.123Z,100138.25
2022-10-24T11:14:29.902Z,100144.75
2022-10-24T11:17:03.102Z,100135.69
2022-10-24T11:19:41.402Z,100137.59
2022-10-24T11:22:17.286Z,100152.88
2022-10-24T11:24:51.680Z,100153.13
2022-10-24T11:27:28.310Z,100147.94
2022-10-24T11:30:06.742Z,100153.69
2022-10-24T11:32:46.739Z,100156.81
2022-10-24T11:35:30.839Z,100150.00
2022-10-24T11:38:03.767Z,100153.66
2022-10-24T11:40:31.261Z,100157.44
2022-10-24T11:43:16.305Z,100154.53
2022-10-24T11:45:53.568Z,100152.75
2022-10-24T11:48:29.556Z,100155.13
2022-10-24T11:51:01.077Z,100161.50
2022-10-24T11:53:33.431Z,100157.47
2022-10-24T11:56:12.117Z,100156.53
2022-10-24T11:58:50.947Z,100161.28
2022-10-24T12:01:52.668Z,100163.06
2022-10-24T12:04:34.005Z,100172.56
2022-10-24T12:07:31.210Z,100174.41
2022-10-24T12:10:07.893Z,100161.66
2022-10-24T12:12:57.258Z,100177.00
2022-10-24T12:15:54.597Z,100171.16
2022-10-24T12:18:29.606Z,100166.50
2022-10-24T12:21:02.495Z,100163.91
2022-10-24T12:23:31.401Z,100169.34
2022-10-24T12:26:13.203Z,100164.63
2022-10-24T12:28:40.849Z,100174.84
2022-10-24T12:31:10.087Z,100169.19
2022-10-24T12:33:36.709Z,100180.53
2022-10-24T12:36:03.377Z,100182.41
2022-10-24T12:38:29.733Z,100170.41
2022-10-24T12:41:06.567Z,100177.75
2022-10-24T12:43:42.749Z,100175.88
2022-10-24T12:46:18.882Z,100171.44
2022-10-24T12:48:58.291Z,100167.38
2022-10-24T12:51:38.939Z,100170.47
2022-10-24T12:54:11.230Z,100162.31
2022-10-24T12:57:00.193Z,100169.13
2022-10-24T12:59:31.742Z,100168.16
2022-10-24T13:02:10.534Z,100162.22
2022-10-24T13:05:17.675Z,100152.06
2022-10-24T13:08:30.473Z,100163.50
2022-10-24T13:11:29.756Z,100159.31
2022-10-24T13:14:16.791Z,100161.47
2022-10-24T13:17:11.120Z,100148.84
2022-10-24T13:19:37.663Z,100142.28
2022-10-24T13:22:04.226Z,100143.84
2022-10-24T13:24:39.897Z,100135.22
2022-10-24T13:27:11.755Z,100131.19
2022-10-24T13:29:39.553Z,100137.59
2022-10-24T13:32:05.983Z,100125.22
2022-10-24T13:34:56.578Z,100130.75
2022-10-24T13:37:36.064Z,100138.09
2022-10-24T13:40:23.873Z,100131.03
2022-10-24T13:42:56.338Z,100139.63
2022-10-24T13:45:31.998Z,100140.41
2022-10-24T13:48:26.408Z,100137.50
2022-10-24T13:51:23.650Z,100131.28
2022-10-24T13:53:54.755Z,100138.16
2022-10-24T13:56:21.279Z,100146.44
2022-10-24T13:58:47.867Z,100145.09
2022-10-24T14:01:25.663Z,100149.28
2022-10-24T14:03:54.599Z,100144.59
2022-10-24T14:06:33.383Z,100144.94
2022-10-24T14:09:11.158Z,100137.59
2022-10-24T14:11:44.008Z,100136.72
2022-10-24T14:14:28.568Z,100140.31
2022-10-24T14:17:23.544Z,100138.28
2022-10-24T14:19:56.722Z,100145.84
2022-10-24T14:22:29.952Z,100146.09
2022-10-24T14:24:56.987Z,100143.41
2022-10-24T14:27:24.068Z,100147.75
2022-10-24T14:29:57.456Z,100153.44
2022-10-24T14:32:25.538Z,100165.81
2022-10-24T14:34:54.451Z,100167.94
2022-10-24T14:37:36.725Z,100161.47
2022-10-24T14:40:04.577Z,100177.19
2022-10-24T14:42:32.201Z,100171.81
2022-10-24T14:44:59.967Z,100172.44
2022-10-24T14:47:38.829Z,100170.22
2022-10-24T14:50:35.374Z,100170.22
2022-10-24T14:53:01.853Z,100171.97
2022-10-24T14:55:28.446Z,100178.66
2022-10-24T14:57:55.067Z,100177.53
2022-10-24T15:00:26.712Z,100177.19
2022-10-24T15:02:56.686Z,100178.72
2022-10-24T15:05:23.466Z,100176.75
2022-10-24T15:08:23.878Z,100177.34
2022-10-24T15:11:03.712Z,100188.47
2022-10-24T15:13:33.153Z,100183.44
2022-10-24T15:16:01.037Z,100175.66
2022-10-24T15:18:30.639Z,100162.44
2022-10-24T15:21:04.164Z,100173.03
2022-10-24T15:23:35.826Z,100175.66
2022-10-24T15:26:16.816Z,100170.56
2022-10-24T15:28:48.075Z,100173.31
2022-10-24T15:31:17.130Z,100176.03
2022-10-24T15:33:44.421Z,100176.88
2022-10-24T15:36:25.171Z,100184.19
2022-10-24T15:39:00.841Z,100169.28
2022-10-24T15:41:27.879Z,100176.34
2022-10-24T15:43:55.288Z,100187.94
2022-10-24T15:46:22.193Z,100175.94
2022-10-24T15:48:49.714Z,100185.81
2022-10-24T15:51:19.570Z,100184.19
2022-10-24T15:53:47.627Z,100193.25
2022-10-24T15:56:14.068Z,100200.50
2022-10-24T15:58:41.275Z,100192.97
2022-10-24T16:01:36.108Z,100190.69
2022-10-24T16:04:05.170Z,100201.66
2022-10-24T16:06:31.581Z,100203.16
2022-10-24T16:08:58.036Z,100217.16
2022-10-24T16:11:24.691Z,100222.13
2022-10-24T16:13:51.177Z,100231.16
2022-10-24T16:16:17.602Z,100228.13
2022-10-24T16:18:44.243Z,100226.19
2022-10-24T16:21:18.851Z,100227.34
2022-10-24T16:23:45.771Z,100224.94
2022-10-24T16:26:12.431Z,100232.16
2022-10-24T16:28:38.892Z,100230.44
2022-10-24T16:31:06.357Z,100236.28
2022-10-24T16:33:33.081Z,100238.38
2022-10-24T16:35:59.704Z,100242.19
2022-10-24T16:38:26.150Z,100242.59
2022-10-24T16:40:54.002Z,100239.53
2022-10-24T16:43:20.683Z,100235.41
2022-10-24T16:45:57.046Z,100246.06
2022-10-24T16:48:23.975Z,100248.69
2022-10-24T16:50:50.464Z,100238.41
2022-10-24T16:53:18.301Z,100245.69
2022-10-24T16:55:49.963Z,100242.44
2022-10-24T16:58:17.781Z,100245.28
2022-10-24T17:00:45.762Z,100249.78
2022-10-24T17:03:12.479Z,100249.09
2022-10-24T17:05:39.276Z,100255.44
2022-10-24T17:08:06.020Z,100263.50
2022-10-24T17:10:32.553Z,100267.16
2022-10-24T17:13:00.933Z,100259.94
2022-10-24T17:15:27.840Z,100265.13
2022-10-24T17:17:54.269Z,100266.13
2022-10-24T17:20:20.868Z,100253.03
2022-10-24T17:22:48.071Z,100253.94
2022-10-24T17:25:23.695Z,100247.88
2022-10-24T17:27:50.974Z,100249.69
2022-10-24T17:30:20.898Z,100245.44
2022-10-24T17:32:47.845Z,100241.06
2022-10-24T17:35:17.234Z,100259.56
2022-10-24T17:38:02.465Z,100265.47
2022-10-24T17:40:40.507Z,100274.75
2022-10-24T17:43:17.212Z,100316.72
2022-10-24T17:45:43.948Z,100366.16
2022-10-24T17:48:10.549Z,100359.09
2022-10-24T17:50:37.298Z,100329.22
2022-10-24T17:53:04.116Z,100342.84
2022-10-24T17:55:47.540Z,100327.72
2022-10-24T17:58:15.344Z,100339.81
2022-10-24T18:00:42.540Z,100319.75
2022-10-24T18:03:09.086Z,100323.91
2022-10-24T18:05:37.976Z,100321.81
2022-10-24T18:08:06.844Z,100324.09
2022-10-24T18:10:33.658Z,100314.13
2022-10-24T18:13:01.853Z,100322.81
2022-10-24T18:15:28.366Z,100312.22
2022-10-24T18:17:54.842Z,100298.34
2022-10-24T18:20:21.398Z,100281.63
2022-10-24T18:22:47.942Z,100349.59
2022-10-24T18:25:20.171Z,100336.22
2022-10-24T18:27:49.896Z,100319.16
2022-10-24T18:30:16.879Z,100337.22
2022-10-24T18:32:44.477Z,100340.53
2022-10-24T18:35:11.595Z,100382.16
2022-10-24T18:37:38.551Z,100378.03
2022-10-24T18:40:06.721Z,100400.59
2022-10-24T18:42:52.353Z,100360.72
2022-10-24T18:45:25.283Z,100327.72
2022-10-24T18:47:52.392Z,100338.69
2022-10-24T18:50:21.803Z,100331.56
2022-10-24T18:53:13.695Z,100336.63
2022-10-24T18:55:40.493Z,100334.44
2022-10-24T18:58:12.825Z,100336.09
2022-10-24T19:00:39.612Z,100344.75
2022-10-24T19:03:29.700Z,100347.31
2022-10-24T19:06:21.378Z,100351.66
2022-10-24T19:08:47.988Z,100352.56
2022-10-24T19:11:15.385Z,100343.69
2022-10-24T19:13:42.971Z,100342.25
2022-10-24T19:16:16.174Z,100334.50
2022-10-24T19:18:50.037Z,100342.06
2022-10-24T19:21:16.482Z,100337.78
2022-10-24T19:23:42.907Z,100331.56
2022-10-24T19:26:11.352Z,100330.75
2022-10-24T19:28:37.927Z,100328.03
2022-10-24T19:31:06.240Z,100330.69
2022-10-24T19:33:32.611Z,100329.63
2022-10-24T19:36:03.012Z,100327.06
2022-10-24T19:38:29.592Z,100325.34
2022-10-24T19:40:56.510Z,100325.22
2022-10-24T19:43:24.996Z,100341.22
2022-10-24T19:46:07.726Z,100342.91
2022-10-24T19:48:41.174Z,100337.63
2022-10-24T19:51:11.007Z,100342.84
2022-10-24T19:53:40.133Z,100338.56
2022-10-24T19:56:12.625Z,100340.28
2022-10-24T19:58:42.787Z,100347.25
2022-10-24T20:01:12.282Z,100350.78
2022-10-24T20:03:44.873Z,100344.75
2022-10-24T20:06:12.523Z,100345.53
2022-10-24T20:08:39.469Z,100347.06
2022-10-24T20:11:07.080Z,100347.13
2022-10-24T20:13:33.646Z,100340.94
2022-10-24T20:16:03.662Z,100356.66
2022-10-24T20:18:31.425Z,100363.59
2022-10-24T20:20:58.062Z,100372.28
2022-10-24T20:23:25.621Z,100370.53
2022-10-24T20:25:59.254Z,100371.38
2022-10-24T20:28:25.756Z,100375.66
2022-10-24T20:30:52.544Z,100387.03
2022-10-24T20:33:18.957Z,100383.66
2022-10-24T20:35:46.094Z,100387.28
2022-10-24T20:38:12.641Z,100408.31
2022-10-24T20:40:39.129Z,100406.44
2022-10-24T20:43:07.034Z,100401.09
2022-10-24T20:45:34.669Z,100416.81
2022-10-24T20:48:01.519Z,100416.69
2022-10-24T20:50:28.699Z,100417.59
2022-10-24T20:52:55.398Z,100412.28
2022-10-24T20:55:32.289Z,100430.69
2022-10-24T20:58:13.776Z,100438.59
2022-10-24T21:03:11.919Z,100448.38
2022-10-24T21:05:38.547Z,100441.34
2022-10-24T21:08:05.278Z,100429.13
2022-10-24T21:10:31.716Z,100441.59
2022-10-24T21:12:58.179Z,100444.25
2022-10-24T21:15:24.587Z,100439.97
2022-10-24T21:17:51.503Z,100459.31
2022-10-24T21:20:18.063Z,100449.13
2022-10-24T21:22:44.465Z,100458.56
2022-10-24T21:25:10.854Z,100458.63
2022-10-24T21:27:37.270Z,100461.59
2022-10-24T21:30:04.037Z,100459.75
2022-10-24T21:32:30.490Z,100454.56
2022-10-24T21:34:56.953Z,100457.25
2022-10-24T21:37:23.450Z,100450.22
2022-10-24T21:39:49.868Z,100447.50
2022-10-24T21:42:16.440Z,100450.22
2022-10-24T21:44:42.865Z,100446.00
2022-10-24T21:47:09.253Z,100445.16
2022-10-24T21:49:35.654Z,100443.53
2022-10-24T21:52:02.067Z,100455.81
2022-10-24T21:54:29.644Z,100449.56
2022-10-24T21:56:56.074Z,100463.56
2022-10-24T21:59:22.806Z,100458.28
2022-10-24T22:01:51.475Z,100463.44
2022-10-24T22:04:18.517Z,100464.34
2022-10-24T22:06:45.334Z,100467.03
2022-10-24T22:09:15.453Z,100470.47
2022-10-24T22:11:42.360Z,100463.56
2022-10-24T22:14:12.176Z,100464.34
2022-10-24T22:16:39.246Z,100478.47
2022-10-24T22:19:06.537Z,100480.25
2022-10-24T22:21:41.886Z,100486.38
2022-10-24T22:24:11.772Z,100484.72
2022-10-24T22:26:39.027Z,100480.31
2022-10-24T22:29:07.010Z,100489.91
2022-10-24T22:31:34.628Z,100485.66
2022-10-24T22:34:01.351Z,100484.78
2022-10-24T22:36:56.582Z,100485.69
2022-10-24T22:39:25.165Z,100481.31
2022-10-24T22:41:52.116Z,100487.53
2022-10-24T22:44:23.009Z,100503.25
2022-10-24T22:47:08.537Z,100493.66
2022-10-24T22:49:47.155Z,100497.94
2022-10-24T22:52:13.860Z,100505.78
2022-10-24T22:54:40.646Z,100508.34
2022-10-24T22:57:07.631Z,100499.59
2022-10-24T22:59:34.481Z,100499.59
2022-10-24T23:02:13.376Z,100509.22
2022-10-24T23:05:06.919Z,100509.13
2022-10-24T23:07:45.641Z,100523.13
2022-10-24T23:10:17.099Z,100518.72
2022-10-24T23:12:43.926Z,100532.72
2022-10-24T23:15:15.131Z,100526.50
2022-10-24T23:17:42.110Z,100529.19
2022-10-24T23:20:14.829Z,100539.75
2022-10-24T23:22:44.480Z,100537.19
2022-10-24T23:25:11.489Z,100538.19
2022-10-24T23:27:40.152Z,100545.22
2022-10-24T23:30:20.249Z,100540.88
2022-10-24T23:32:48.547Z,100551.38
2022-10-24T23:35:16.901Z,100544.53
2022-10-24T23:37:49.682Z,100549.84
2022-10-24T23:40:33.134Z,100559.47
2022-10-24T23:43:00.365Z,100548.16
2022-10-24T23:45:32.323Z,100547.34
2022-10-24T23:48:18.427Z,100557.03
2022-10-24T23:51:06.818Z,100554.47
2022-10-24T23:53:52.892Z,100547.50
2022-10-24T23:56:25.139Z,100557.25
2022-10-24T23:58:52.403Z,100558.16
